Time;durP1;ratioP1;P1;durP2;ratioP2;P2;SDS_P1;SDS_P2;PMS_P1;PMS_P2;Temp;Humidity;BMP_temperature;BMP_pressure;BME280_temperature;BME280_humidity;BME280_pressure;Samples;Min_cycle;Max_cycle;Signal;HPM_P1;HPM_P2
2024/01/04 00:01:38;;;;;;;4.25;1.55;;;6.20;14.20;;;;;;5024673;28;20574;-83
2024/01/04 00:04:40;;;;;;;7.88;1.60;;;6.10;41.10;;;;;;5011958;28;20442;-83
2024/01/04 00:07:38;;;;;;;9.05;1.90;;;6.20;21.70;;;;;;5021913;28;20056;-82
2024/01/04 00:10:43;;;;;;;10.63;1.95;;;6.10;44.00;;;;;;5010233;28;20037;-81
2024/01/04 00:13:35;;;;;;;4.68;1.52;;;6.10;15.90;;;;;;5027205;28;20056;-84
2024/01/04 00:16:41;;;;;;;6.03;1.40;;;6.10;44.00;;;;;;5008039;28;20383;-80
2024/01/04 00:19:31;;;;;;;5.45;1.25;;;6.10;54.80;;;;;;5024579;28;20080;-80
2024/01/04 00:22:24;;;;;;;4.00;1.52;;;6.10;83.20;;;;;;5024887;28;20105;-80
2024/01/04 00:25:17;;;;;;;5.60;1.30;;;6.10;88.70;;;;;;5028286;28;20057;-85
2024/01/04 00:28:12;;;;;;;4.55;1.30;;;6.10;94.20;;;;;;5029491;28;20060;-82
2024/01/04 00:31:16;;;;;;;5.25;1.23;;;6.00;99.90;;;;;;5015381;28;20493;-82
2024/01/04 00:34:08;;;;;;;8.35;1.52;;;6.00;99.90;;;;;;5010358;28;20774;-81
2024/01/04 00:36:59;;;;;;;6.65;1.50;;;6.00;99.90;;;;;;5019763;28;20052;-81
2024/01/04 00:40:05;;;;;;;3.80;1.60;;;6.00;99.90;;;;;;5034077;28;20052;-83
2024/01/04 00:43:00;;;;;;;3.25;1.45;;;6.00;99.90;;;;;;5026148;28;20066;-82
2024/01/04 00:46:06;;;;;;;6.72;1.67;;;6.00;99.90;;;;;;5024776;28;20616;-82
2024/01/04 00:49:02;;;;;;;9.48;2.00;;;6.00;99.90;;;;;;5029022;28;20041;-82
2024/01/04 00:52:03;;;;;;;6.70;1.77;;;6.00;99.90;;;;;;5019047;28;20052;-77
2024/01/04 00:54:56;;;;;;;8.10;2.03;;;6.00;99.90;;;;;;5013763;28;20417;-81
2024/01/04 00:57:44;;;;;;;4.35;1.63;;;6.10;99.90;;;;;;5022123;28;20037;-81
2024/01/04 01:00:43;;;;;;;15.93;2.47;;;6.10;99.90;;;;;;5007634;28;20054;-80
2024/01/04 01:03:37;;;;;;;10.48;1.48;;;6.10;99.90;;;;;;5024318;28;20267;-81
2024/01/04 01:06:51;;;;;;;6.85;1.60;;;6.10;99.90;;;;;;5017345;28;20124;-76
2024/01/04 01:09:39;;;;;;;3.15;1.58;;;6.10;99.90;;;;;;5029320;28;20057;-82
2024/01/04 01:12:35;;;;;;;6.88;1.67;;;6.10;99.90;;;;;;5034424;28;20045;-78
2024/01/04 01:15:27;;;;;;;4.95;1.85;;;6.10;99.90;;;;;;5039005;28;20041;-81
2024/01/04 01:18:23;;;;;;;5.32;1.70;;;6.20;99.90;;;;;;5044384;28;20057;-77
2024/01/04 01:21:15;;;;;;;10.25;2.15;;;6.20;99.90;;;;;;5030740;28;20095;-84
2024/01/04 01:24:05;;;;;;;6.97;1.60;;;6.10;99.90;;;;;;5005687;28;20266;-84
2024/01/04 01:26:58;;;;;;;4.80;1.20;;;6.10;99.90;;;;;;5033708;28;20037;-82
2024/01/04 01:29:51;;;;;;;5.35;1.90;;;6.10;99.90;;;;;;5030958;28;20049;-81
2024/01/04 01:32:41;;;;;;;4.80;1.10;;;6.20;99.90;;;;;;5011550;28;20041;-80
2024/01/04 01:35:50;;;;;;;;;;;;;;;;;;;;;
2024/01/04 01:38:42;;;;;;;6.07;1.65;;;6.10;99.90;;;;;;5026538;28;20120;-82
2024/01/04 01:41:40;;;;;;;5.30;1.90;;;6.10;99.90;;;;;;5032629;28;20045;-83
2024/01/04 01:44:32;;;;;;;5.50;1.20;;;6.10;99.90;;;;;;5033531;28;20139;-82
2024/01/04 01:47:26;;;;;;;1.23;1.00;;;6.10;99.90;;;;;;5025022;28;20108;-81
2024/01/04 01:53:37;;;;;;;7.60;1.10;;;6.00;99.90;;;;;;5009593;28;20046;-80
2024/01/04 01:56:25;;;;;;;4.53;1.30;;;6.00;99.90;;;;;;5005253;28;20042;-79
2024/01/04 01:59:27;;;;;;;5.00;1.10;;;5.90;99.90;;;;;;5017931;28;20528;-81
2024/01/04 02:02:20;;;;;;;6.82;1.77;;;5.90;99.90;;;;;;5014708;28;20422;-83
2024/01/04 02:05:13;;;;;;;10.77;1.33;;;5.80;99.90;;;;;;5009199;28;20179;-82
2024/01/04 02:08:11;;;;;;;11.63;1.45;;;5.70;99.90;;;;;;5017632;28;20057;-82
2024/01/04 02:11:04;;;;;;;6.20;1.27;;;5.60;99.90;;;;;;5008637;28;20119;-83
2024/01/04 02:13:56;;;;;;;5.55;1.35;;;5.60;99.90;;;;;;5021839;28;20041;-81
2024/01/04 02:16:53;;;;;;;2.75;0.93;;;5.50;99.90;;;;;;5010948;28;20033;-80
2024/01/04 02:19:41;;;;;;;5.85;1.17;;;5.40;99.90;;;;;;5023966;28;20145;-83
2024/01/04 02:22:38;;;;;;;5.05;1.17;;;5.50;99.90;;;;;;5021258;28;20666;-81
2024/01/04 02:25:29;;;;;;;8.45;1.30;;;5.50;99.90;;;;;;5023127;28;20050;-82
2024/01/04 02:28:19;;;;;;;5.82;1.35;;;5.50;99.90;;;;;;5022661;28;20053;-82
2024/01/04 02:31:10;;;;;;;5.47;1.45;;;5.50;99.90;;;;;;5025085;28;20607;-81
2024/01/04 02:34:02;;;;;;;3.67;1.08;;;5.50;99.90;;;;;;5028268;28;20068;-79
2024/01/04 02:37:03;;;;;;;10.00;1.50;;;5.40;99.90;;;;;;5023590;28;20132;-82
2024/01/04 02:40:13;;;;;;;2.35;1.15;;;5.40;99.90;;;;;;5017024;28;20056;-83
2024/01/04 02:43:09;;;;;;;4.68;1.45;;;5.40;99.90;;;;;;5019226;28;20049;-81
2024/01/04 02:46:05;;;;;;;8.98;1.48;;;5.40;99.90;;;;;;5025127;28;20161;-79
2024/01/04 02:48:55;;;;;;;4.35;1.20;;;5.40;99.90;;;;;;5047502;28;20053;-78
2024/01/04 02:51:56;;;;;;;4.88;1.30;;;5.30;99.90;;;;;;5051205;28;20022;-79
2024/01/04 02:54:51;;;;;;;1.30;0.95;;;5.30;99.90;;;;;;5030674;28;20045;-80
2024/01/04 02:57:43;;;;;;;3.17;0.80;;;5.20;99.90;;;;;;5044676;28;20052;-80
2024/01/04 03:00:37;;;;;;;4.13;1.20;;;5.10;99.90;;;;;;5009816;28;20053;-82
2024/01/04 03:03:28;;;;;;;2.55;1.08;;;5.10;99.90;;;;;;5023874;28;20041;-80
2024/01/04 03:06:27;;;;;;;5.13;1.02;;;5.00;99.90;;;;;;5028747;28;20457;-81
2024/01/04 03:09:23;;;;;;;2.75;0.70;;;4.90;99.90;;;;;;5022595;28;20045;-80
2024/01/04 03:12:13;;;;;;;0.73;0.70;;;4.90;99.90;;;;;;5034776;28;20046;-80
2024/01/04 03:15:10;;;;;;;1.77;1.02;;;4.90;99.90;;;;;;5029460;28;20084;-81
2024/01/04 03:18:09;;;;;;;1.13;0.80;;;4.90;99.90;;;;;;5028047;28;20049;-80
2024/01/04 03:21:08;;;;;;;0.93;0.60;;;4.90;99.90;;;;;;5019280;28;20053;-82
2024/01/04 03:24:08;;;;;;;1.00;0.90;;;5.00;99.90;;;;;;5011870;28;20049;-80
2024/01/04 03:27:15;;;;;;;1.63;0.85;;;5.00;99.90;;;;;;5023686;28;20045;-80
2024/01/04 03:30:21;;;;;;;0.75;0.75;;;5.00;99.90;;;;;;5031126;28;20033;-81
2024/01/04 03:33:18;;;;;;;1.50;1.25;;;5.00;99.90;;;;;;5018937;28;20061;-81
2024/01/04 03:36:24;;;;;;;0.80;0.80;;;5.00;99.90;;;;;;5021358;28;20400;-81
2024/01/04 03:39:26;;;;;;;1.08;0.70;;;5.00;99.90;;;;;;5022480;28;20490;-79
2024/01/04 03:42:21;;;;;;;1.27;0.75;;;5.00;99.90;;;;;;5026390;28;20053;-78
2024/01/04 03:45:11;;;;;;;2.10;0.70;;;5.00;99.90;;;;;;5025736;28;20061;-83
2024/01/04 03:48:05;;;;;;;4.80;1.30;;;5.10;99.90;;;;;;5025090;28;20076;-80
2024/01/04 03:50:55;;;;;;;2.20;1.00;;;5.10;99.90;;;;;;5025107;28;20115;-80
2024/01/04 03:54:20;;;;;;;4.32;1.27;;;5.20;99.90;;;;;;5030064;28;20101;-79
2024/01/04 03:57:17;;;;;;;3.95;1.13;;;5.40;99.90;;;;;;5041796;28;20029;-78
2024/01/04 04:00:29;;;;;;;2.72;1.13;;;5.40;99.90;;;;;;5034774;28;20037;-81
2024/01/04 04:03:31;;;;;;;3.50;0.93;;;5.50;99.90;;;;;;5040312;28;20064;-79
2024/01/04 04:06:28;;;;;;;5.05;1.42;;;5.60;99.90;;;;;;5010143;28;20727;-82
2024/01/04 04:09:18;;;;;;;4.25;1.20;;;5.60;99.90;;;;;;5011245;28;20061;-80
2024/01/04 04:12:15;;;;;;;5.75;1.40;;;5.70;99.90;;;;;;5025809;28;20053;-79
2024/01/04 04:15:12;;;;;;;6.85;1.20;;;5.80;99.90;;;;;;5020271;28;20046;-83
2024/01/04 04:18:05;;;;;;;1.73;1.23;;;5.80;99.90;;;;;;5018785;28;20277;-82
2024/01/04 04:20:54;;;;;;;;;;;5.80;99.90;;;;;;5003697;28;20565;-80
2024/01/04 04:23:51;;;;;;;5.40;1.30;;;5.80;99.90;;;;;;5025242;28;19967;-81
2024/01/04 04:26:46;;;;;;;7.40;1.63;;;5.80;99.90;;;;;;5022372;28;20049;-79
2024/01/04 04:29:40;;;;;;;4.07;1.00;;;5.90;99.90;;;;;;5007929;28;20049;-79
2024/01/04 04:32:41;;;;;;;1.00;0.85;;;5.90;99.90;;;;;;5024200;28;20662;-81
2024/01/04 04:35:34;;;;;;;3.03;1.38;;;5.90;99.90;;;;;;5020942;28;20045;-82
2024/01/04 04:38:43;;;;;;;4.20;1.52;;;5.80;99.90;;;;;;5024684;28;20049;-79
2024/01/04 04:41:39;;;;;;;6.03;1.25;;;5.80;99.90;;;;;;5022482;28;20057;-81
2024/01/04 04:44:30;;;;;;;4.57;1.13;;;5.80;99.90;;;;;;5018424;28;20042;-79
2024/01/04 04:47:34;;;;;;;;;;;;;;;;;;;;;
2024/01/04 04:50:28;;;;;;;4.97;1.30;;;5.80;99.90;;;;;;5020723;28;20120;-83
2024/01/04 04:53:27;;;;;;;6.50;1.27;;;5.80;99.90;;;;;;5033656;28;20041;-80
2024/01/04 04:56:29;;;;;;;2.63;1.23;;;5.70;99.90;;;;;;5027619;28;20076;-79
2024/01/04 04:59:22;;;;;;;2.22;1.00;;;5.70;99.90;;;;;;5024227;28;20038;-82
2024/01/04 05:02:18;;;;;;;3.90;1.20;;;5.60;99.90;;;;;;5014285;28;20057;-82
2024/01/04 05:05:09;;;;;;;9.40;1.40;;;5.50;99.90;;;;;;5029268;28;20510;-80
2024/01/04 05:08:06;;;;;;;7.32;1.20;;;5.50;99.90;;;;;;5014412;28;20101;-84
2024/01/04 05:11:06;;;;;;;8.30;1.35;;;5.60;99.90;;;;;;5026053;28;20041;-82
2024/01/04 05:14:07;;;;;;;3.30;1.20;;;5.60;99.90;;;;;;5024147;28;20044;-80
2024/01/04 05:16:57;;;;;;;3.97;1.10;;;5.70;99.90;;;;;;5007971;28;20038;-81
2024/01/04 05:19:55;;;;;;;4.47;1.30;;;5.70;99.90;;;;;;5027736;28;20414;-82
2024/01/04 05:22:42;;;;;;;4.03;1.08;;;5.80;99.90;;;;;;5011389;28;20046;-81
2024/01/04 05:25:37;;;;;;;4.40;1.20;;;5.80;99.90;;;;;;5018207;28;20049;-84
2024/01/04 05:28:32;;;;;;;1.88;0.98;;;5.80;99.90;;;;;;5024931;28;20057;-78
2024/01/04 05:31:29;;;;;;;3.42;1.27;;;5.80;99.90;;;;;;5026475;28;20042;-82
2024/01/04 05:34:22;;;;;;;4.85;1.30;;;5.70;99.90;;;;;;5008152;28;20065;-80
2024/01/04 05:37:15;;;;;;;6.32;1.23;;;5.70;99.90;;;;;;5018620;28;20050;-83
2024/01/04 05:40:09;;;;;;;3.13;1.10;;;5.70;99.90;;;;;;5007792;28;20155;-78
2024/01/04 05:43:11;;;;;;;4.68;1.42;;;5.70;99.90;;;;;;5026776;28;20363;-78
2024/01/04 05:46:09;;;;;;;5.70;1.38;;;5.70;99.90;;;;;;5035161;28;20056;-80
2024/01/04 05:49:06;;;;;;;3.53;1.20;;;5.80;99.90;;;;;;5018741;28;20053;-81
2024/01/04 05:52:26;;;;;;;2.78;1.10;;;5.70;99.90;;;;;;5007040;28;20069;-81
2024/01/04 05:55:14;;;;;;;5.60;1.20;;;5.70;99.90;;;;;;5022296;28;20490;-81
2024/01/04 05:58:01;;;;;;;1.90;1.10;;;5.70;99.90;;;;;;5020151;28;20103;-80
2024/01/04 06:00:48;;;;;;;2.33;0.80;;;5.70;99.90;;;;;;5030184;28;20056;-79
2024/01/04 06:03:37;;;;;;;5.78;1.35;;;5.80;99.90;;;;;;5035343;28;20041;-79
2024/01/04 06:06:27;;;;;;;8.57;1.70;;;5.80;99.90;;;;;;5031731;28;20052;-80
2024/01/04 06:09:20;;;;;;;7.28;1.60;;;5.80;99.90;;;;;;5025890;28;20054;-78
2024/01/04 06:12:10;;;;;;;2.90;1.25;;;5.80;99.90;;;;;;5020650;28;20132;-78
2024/01/04 06:15:13;;;;;;;7.43;1.65;;;5.80;99.90;;;;;;5052678;28;20037;-77
2024/01/04 06:18:10;;;;;;;7.90;1.60;;;5.70;99.90;;;;;;5031987;28;20892;-81
2024/01/04 06:21:38;;;;;;;5.43;1.77;;;5.70;99.90;;;;;;5041218;28;20536;-79
2024/01/04 06:24:33;;;;;;;10.85;2.10;;;5.70;99.90;;;;;;5037400;28;20041;-80
2024/01/04 06:27:37;;;;;;;8.43;1.33;;;5.70;99.90;;;;;;5036027;28;20529;-80
2024/01/04 06:30:27;;;;;;;7.70;1.60;;;5.60;99.90;;;;;;5030134;28;20046;-81
2024/01/04 06:33:16;;;;;;;6.10;1.88;;;5.60;99.90;;;;;;5022282;28;20514;-81
2024/01/04 06:36:09;;;;;;;11.68;1.85;;;5.60;99.90;;;;;;5030990;28;20050;-78
2024/01/04 06:39:01;;;;;;;5.22;1.70;;;5.60;99.90;;;;;;5039274;28;20450;-83
2024/01/04 06:42:04;;;;;;;7.40;1.70;;;5.60;99.90;;;;;;5031898;28;20073;-82
2024/01/04 06:45:14;;;;;;;14.10;1.98;;;5.60;99.90;;;;;;5035417;28;20421;-83
2024/01/04 06:48:27;;;;;;;8.75;1.77;;;5.60;99.90;;;;;;5018174;28;20120;-81
2024/01/04 06:51:22;;;;;;;9.77;2.47;;;5.60;99.90;;;;;;5027587;28;20075;-82
2024/01/04 06:54:09;;;;;;;5.18;1.58;;;5.60;99.90;;;;;;5022869;28;20041;-83
2024/01/04 06:57:06;;;;;;;6.82;1.88;;;5.50;99.90;;;;;;5023222;28;20683;-82
2024/01/04 07:00:00;;;;;;;5.53;1.70;;;5.50;99.90;;;;;;5026019;28;20045;-82
2024/01/04 07:03:11;;;;;;;;;;;;;;;;;;;;;
2024/01/04 07:06:06;;;;;;;5.63;1.98;;;5.40;99.90;;;;;;5035007;28;20072;-79
2024/01/04 07:08:56;;;;;;;7.63;1.75;;;5.40;99.90;;;;;;5011155;28;20143;-81
2024/01/04 07:11:52;;;;;;;2.88;1.67;;;5.40;99.90;;;;;;5017070;28;20034;-80
2024/01/04 07:14:39;;;;;;;;;;;5.40;99.90;;;;;;5010881;28;20103;-80
2024/01/04 07:17:58;;;;;;;8.50;1.77;;;5.40;99.90;;;;;;5034227;28;20384;-83
2024/01/04 07:20:59;;;;;;;10.00;2.53;;;5.40;99.90;;;;;;5024008;28;20124;-81
2024/01/04 07:23:51;;;;;;;9.63;2.45;;;5.40;99.90;;;;;;5027821;28;20061;-80
2024/01/04 07:26:39;;;;;;;7.13;1.70;;;5.30;99.90;;;;;;5023372;28;20125;-82
2024/01/04 07:29:29;;;;;;;6.25;1.77;;;5.40;99.90;;;;;;5013795;28;20065;-79
2024/01/04 07:32:19;;;;;;;8.30;2.00;;;5.40;99.90;;;;;;5029758;28;20045;-81
2024/01/04 07:35:09;;;;;;;4.85;1.70;;;5.40;99.90;;;;;;5026693;28;20054;-80
2024/01/04 07:38:11;;;;;;;13.23;2.00;;;5.40;99.90;;;;;;5027719;28;20052;-81
2024/01/04 07:41:12;;;;;;;7.72;2.03;;;5.40;99.90;;;;;;5029765;28;20064;-80
2024/01/04 07:44:23;;;;;;;7.47;1.67;;;5.40;99.90;;;;;;5028505;28;20111;-81
2024/01/04 07:47:41;;;;;;;9.38;2.30;;;5.40;99.90;;;;;;5030025;28;20171;-80
2024/01/04 07:50:46;;;;;;;8.52;1.90;;;5.40;99.90;;;;;;5018717;28;20134;-80
2024/01/04 07:53:42;;;;;;;5.07;2.30;;;5.50;99.90;;;;;;5023297;28;20041;-79
2024/01/04 07:56:37;;;;;;;5.72;1.95;;;5.50;99.90;;;;;;5025508;28;20172;-81
2024/01/04 07:59:30;;;;;;;7.57;2.45;;;5.40;99.90;;;;;;5014183;28;20033;-79
2024/01/04 08:02:19;;;;;;;7.30;1.95;;;5.50;99.90;;;;;;5030186;28;20107;-78
2024/01/04 08:05:09;;;;;;;9.88;2.05;;;5.60;99.90;;;;;;5028581;28;20033;-78
2024/01/04 08:08:03;;;;;;;10.35;2.30;;;5.60;99.90;;;;;;5043031;28;20050;-79
2024/01/04 08:10:52;;;;;;;10.43;2.00;;;5.60;99.90;;;;;;5043970;28;20041;-78
2024/01/04 08:14:12;;;;;;;11.43;2.85;;;5.60;99.90;;;;;;5034528;28;20412;-81
2024/01/04 08:17:29;;;;;;;7.03;1.90;;;5.60;99.90;;;;;;5023667;28;20454;-81
2024/01/04 08:20:18;;;;;;;10.60;2.42;;;5.70;99.90;;;;;;5031968;28;20044;-78
2024/01/04 08:23:23;;;;;;;10.07;2.58;;;5.70;99.90;;;;;;5025244;28;20041;-82
2024/01/04 08:26:27;;;;;;;7.25;1.70;;;5.90;76.10;;;;;;5006637;28;20041;-79
2024/01/04 08:29:18;;;;;;;9.45;1.92;;;6.00;16.30;;;;;;5015856;28;20519;-78
2024/01/04 08:32:06;;;;;;;6.35;1.77;;;6.20;1.00;;;;;;5026856;28;20062;-80
2024/01/04 08:34:59;;;;;;;6.97;1.92;;;6.30;1.00;;;;;;5031849;28;20486;-77
2024/01/04 08:37:54;;;;;;;2.92;1.42;;;6.30;99.90;;;;;;5023538;28;20046;-81
2024/01/04 08:40:47;;;;;;;7.25;2.00;;;6.40;99.90;;;;;;5024419;28;20045;-81
2024/01/04 08:43:34;;;;;;;6.40;1.90;;;6.30;99.90;;;;;;5031166;28;20042;-80
2024/01/04 08:46:24;;;;;;;8.60;2.10;;;6.30;99.90;;;;;;5023143;28;20045;-80
2024/01/04 08:49:16;;;;;;;4.40;1.52;;;6.20;99.90;;;;;;5027551;28;20068;-80
2024/01/04 08:52:13;;;;;;;10.30;1.98;;;6.20;99.90;;;;;;5027618;28;20080;-80
2024/01/04 08:55:32;;;;;;;4.05;1.55;;;6.20;99.90;;;;;;5042831;28;20203;-80
2024/01/04 08:58:24;;;;;;;9.10;2.17;;;6.20;99.90;;;;;;5035339;28;20045;-79
2024/01/04 09:01:17;;;;;;;6.45;1.60;;;6.10;1.00;;;;;;5025437;28;20037;-77
2024/01/04 09:04:04;;;;;;;4.72;1.15;;;6.10;99.90;;;;;;5034830;28;20045;-78
2024/01/04 09:07:01;;;;;;;3.15;1.30;;;6.00;99.90;;;;;;5027610;28;20053;-79
2024/01/04 09:10:00;;;;;;;2.83;1.73;;;6.00;99.90;;;;;;5040012;28;20060;-80
2024/01/04 09:12:57;;;;;;;5.15;1.73;;;5.90;99.90;;;;;;5031283;28;20037;-78
2024/01/04 09:15:50;;;;;;;3.47;1.23;;;5.90;1.00;;;;;;5052458;28;20049;-79
2024/01/04 09:18:51;;;;;;;2.10;1.30;;;6.00;99.90;;;;;;5042916;28;20033;-79
2024/01/04 09:21:55;;;;;;;3.28;1.40;;;6.40;38.80;;;;;;5038087;28;20026;-78
2024/01/04 09:25:10;;;;;;;;;;;;;;;;;;;;;
2024/01/04 09:28:34;;;;;;;2.95;1.20;;;6.90;99.90;;;;;;5029233;28;20053;-78
2024/01/04 09:31:46;;;;;;;3.20;1.63;;;7.00;99.90;;;;;;5028495;28;20514;-80
2024/01/04 09:34:42;;;;;;;6.38;1.75;;;7.20;99.90;;;;;;5020951;28;20060;-81
2024/01/04 09:37:51;;;;;;;4.38;1.52;;;7.50;1.00;;;;;;5025692;28;20105;-82
2024/01/04 09:40:51;;;;;;;6.95;2.38;;;7.80;99.90;;;;;;5023936;28;20041;-78
2024/01/04 09:43:41;;;;;;;5.40;1.63;;;8.30;1.00;;;;;;5035667;28;20041;-80
2024/01/04 09:46:36;;;;;;;5.00;1.80;;;9.00;1.00;;;;;;5018951;28;20464;-78
2024/01/04 09:49:53;;;;;;;5.90;1.25;;;9.20;1.00;;;;;;5034714;28;20045;-79
2024/01/04 09:52:58;;;;;;;7.63;1.90;;;9.60;99.90;;;;;;5022451;28;20046;-80
2024/01/04 09:56:01;;;;;;;6.90;1.45;;;10.00;1.00;;;;;;5027172;28;20049;-80
2024/01/04 09:58:55;;;;;;;10.95;2.10;;;9.90;99.90;;;;;;5026464;28;20096;-79
2024/01/04 10:01:53;;;;;;;6.38;1.77;;;9.70;99.90;;;;;;5034680;28;20156;-83
2024/01/04 10:04:53;;;;;;;8.25;1.50;;;9.40;99.90;;;;;;5045829;28;20045;-79
2024/01/04 10:08:23;;;;;;;6.35;1.55;;;8.80;99.90;;;;;;5036646;28;20067;-78
2024/01/04 10:11:34;;;;;;;;;;;;;;;;;;;;;
2024/01/04 10:14:38;;;;;;;4.22;1.40;;;9.50;99.90;;;;;;5034395;28;20038;-81
2024/01/04 10:17:41;;;;;;;5.63;1.48;;;10.90;99.90;;;;;;5019113;28;20045;-76
2024/01/04 10:20:30;;;;;;;8.15;2.03;;;11.00;99.90;;;;;;5010688;28;20042;-80
2024/01/04 10:23:21;;;;;;;3.75;1.20;;;10.70;99.90;;;;;;5018242;28;20041;-81
2024/01/04 10:26:17;;;;;;;6.60;1.60;;;10.50;39.50;;;;;;5010865;28;20132;-80
2024/01/04 10:29:18;;;;;;;4.90;1.23;;;10.20;46.40;;;;;;5022743;28;20049;-80
2024/01/04 10:32:15;;;;;;;3.83;1.48;;;10.10;23.30;;;;;;5030083;28;20164;-79
2024/01/04 10:35:09;;;;;;;5.17;1.60;;;9.30;1.00;;;;;;5028148;28;20042;-79
2024/01/04 10:38:36;;;;;;;5.53;1.50;;;8.70;52.20;;;;;;5006736;28;20296;-80
2024/01/04 10:41:33;;;;;;;5.03;1.63;;;8.50;99.90;;;;;;4985519;28;20194;-79
2024/01/04 10:44:43;;;;;;;5.45;1.45;;;8.10;99.90;;;;;;5008960;28;20069;-78
2024/01/04 10:48:22;;;;;;;;;;;;;;;;;;;;;
2024/01/04 10:51:24;;;;;;;5.25;1.70;;;7.90;99.90;;;;;;5024363;28;20517;-79
2024/01/04 10:54:43;;;;;;;5.80;2.05;;;7.80;99.90;;;;;;5026685;28;20046;-78
2024/01/04 10:57:39;;;;;;;5.95;2.33;;;7.70;99.90;;;;;;5014388;28;20068;-78
2024/01/04 11:00:33;;;;;;;3.50;1.67;;;7.60;99.90;;;;;;5017131;28;20060;-76
2024/01/04 11:03:23;;;;;;;4.25;1.75;;;7.50;99.90;;;;;;5044694;28;20037;-80
2024/01/04 11:06:23;;;;;;;8.38;2.22;;;7.40;99.90;;;;;;5034345;28;20536;-80
2024/01/04 11:09:13;;;;;;;8.57;2.03;;;7.20;99.90;;;;;;5033942;28;20503;-80
2024/01/04 11:12:05;;;;;;;6.25;1.70;;;7.30;1.00;;;;;;5025423;28;20138;-80
2024/01/04 11:14:57;;;;;;;6.75;1.85;;;7.30;99.90;;;;;;5026783;28;20054;-79
2024/01/04 11:17:57;;;;;;;;;;;7.50;99.90;;;;;;5008587;28;20042;-79
2024/01/04 11:21:00;;;;;;;5.00;1.45;;;7.60;99.90;;;;;;5035602;28;19925;-81
2024/01/04 11:23:56;;;;;;;7.38;1.58;;;7.60;99.90;;;;;;5026232;28;20052;-81
2024/01/04 11:26:56;;;;;;;3.97;1.45;;;7.50;99.90;;;;;;5035347;28;20048;-78
2024/01/04 11:29:48;;;;;;;4.82;1.27;;;7.40;99.90;;;;;;5034328;28;20029;-80
2024/01/04 11:32:50;;;;;;;6.22;1.80;;;7.30;99.90;;;;;;5033198;28;20041;-77
2024/01/04 11:35:43;;;;;;;5.70;1.35;;;7.20;99.90;;;;;;5028676;28;20032;-79
2024/01/04 11:38:37;;;;;;;3.20;1.55;;;7.20;99.90;;;;;;5016456;28;20533;-83
2024/01/04 11:41:58;;;;;;;3.75;1.20;;;7.40;99.90;;;;;;5029950;28;20426;-79
2024/01/04 11:45:05;;;;;;;3.53;1.20;;;8.70;99.90;;;;;;5043351;28;20072;-77
2024/01/04 11:48:28;;;;;;;;;;;;;;;;;;;;;
2024/01/04 11:51:48;;;;;;;3.65;1.05;;;10.10;21.40;;;;;;5037680;28;20448;-79
2024/01/04 11:54:47;;;;;;;3.67;1.40;;;10.30;1.00;;;;;;5035427;28;20567;-78
2024/01/04 11:58:04;;;;;;;2.05;1.00;;;10.70;1.00;;;;;;5044496;28;20103;-83
2024/01/04 12:01:40;;;;;;;4.70;1.38;;;11.20;1.00;;;;;;5041869;28;20538;-81
2024/01/04 12:04:48;;;;;;;5.22;1.35;;;11.00;1.00;;;;;;5017256;28;20635;-81
2024/01/04 12:08:03;;;;;;;4.45;1.23;;;10.50;1.00;;;;;;5000384;28;20034;-80
2024/01/04 12:11:07;;;;;;;4.50;1.25;;;9.20;1.00;;;;;;4981711;28;20042;-80
2024/01/04 12:14:23;;;;;;;5.68;1.50;;;8.40;1.00;;;;;;5001438;28;20149;-82
2024/01/04 12:17:30;;;;;;;5.97;1.67;;;8.00;1.00;;;;;;5004977;28;20246;-80
2024/01/04 12:20:38;;;;;;;4.63;1.27;;;7.50;1.00;;;;;;5003095;28;20268;-82
2024/01/04 12:23:54;;;;;;;2.58;1.25;;;7.10;99.90;;;;;;4997476;28;20050;-82
2024/01/04 12:27:02;;;;;;;6.15;1.40;;;6.60;1.00;;;;;;5001661;28;20093;-81
2024/01/04 12:30:27;;;;;;;5.13;1.58;;;6.50;99.90;;;;;;5003400;28;20103;-81
2024/01/04 12:33:30;;;;;;;;;;;6.40;1.00;;;;;;5000551;28;20073;-81
2024/01/04 12:36:54;;;;;;;8.00;2.33;;;6.90;99.90;;;;;;4995570;28;20056;-80
2024/01/04 12:40:06;;;;;;;11.18;1.92;;;6.70;99.90;;;;;;4994927;28;20125;-80
2024/01/04 12:43:17;;;;;;;9.82;1.88;;;6.60;1.00;;;;;;4996203;28;20129;-80
2024/01/04 12:46:39;;;;;;;3.85;1.38;;;6.70;99.90;;;;;;5023037;28;20061;-78
2024/01/04 12:50:30;;;;;;;2.90;1.50;;;6.70;1.00;;;;;;5016350;28;20145;-84
2024/01/04 12:53:54;;;;;;;3.20;1.70;;;6.80;1.00;;;;;;5016316;28;20080;-82
2024/01/04 12:57:03;;;;;;;6.38;1.63;;;7.00;99.90;;;;;;5030416;28;20084;-81
2024/01/04 13:00:15;;;;;;;4.63;1.48;;;7.90;99.90;;;;;;4977668;28;20042;-79
2024/01/04 13:03:15;;;;;;;4.18;1.25;;;9.10;99.90;;;;;;5047078;28;20072;-79
2024/01/04 13:06:23;;;;;;;3.65;1.10;;;9.80;99.90;;;;;;5049647;28;20037;-78
2024/01/04 13:09:42;;;;;;;5.25;1.50;;;10.60;99.90;;;;;;5031017;28;20049;-81
2024/01/04 13:13:04;;;;;;;3.25;1.23;;;10.80;99.90;;;;;;5033747;28;20080;-79
2024/01/04 13:16:07;;;;;;;1.98;1.20;;;10.90;18.90;;;;;;5021889;28;20045;-81
2024/01/04 13:19:15;;;;;;;2.97;1.10;;;11.00;1.00;;;;;;5020910;28;20129;-83
2024/01/04 13:22:39;;;;;;;3.40;1.20;;;11.10;1.00;;;;;;5016506;28;20049;-81
2024/01/04 13:25:43;;;;;;;6.30;1.60;;;10.90;1.00;;;;;;5006180;28;20761;-78
2024/01/04 13:29:08;;;;;;;6.75;1.92;;;11.10;1.00;;;;;;5011702;28;20126;-80
2024/01/04 13:32:43;;;;;;;5.13;1.70;;;9.90;1.00;;;;;;5020329;28;20041;-82
2024/01/04 13:35:38;;;;;;;6.45;1.85;;;9.80;1.00;;;;;;5021398;28;20042;-82
2024/01/04 13:38:58;;;;;;;;;;;;;;;;;;;;;
2024/01/04 13:42:07;;;;;;;8.05;1.67;;;9.40;1.00;;;;;;5031514;28;20045;-81
2024/01/04 13:45:00;;;;;;;4.90;1.30;;;8.40;1.00;;;;;;5028769;28;20135;-85
2024/01/04 13:48:15;;;;;;;10.90;1.65;;;8.50;1.00;;;;;;5036396;28;20049;-80
2024/01/04 13:51:20;;;;;;;8.00;2.08;;;8.20;1.00;;;;;;5021963;28;20052;-82
2024/01/04 13:54:29;;;;;;;5.57;1.60;;;7.90;1.00;;;;;;5027800;28;20097;-79
2024/01/04 13:58:19;;;;;;;5.68;1.65;;;8.10;1.00;;;;;;5016075;28;20068;-81
2024/01/04 14:01:26;;;;;;;;;;;8.20;5.00;;;;;;5033787;28;20060;-78
2024/01/04 14:04:25;;;;;;;3.65;1.20;;;9.00;1.00;;;;;;5030263;28;19920;-81
2024/01/04 14:07:20;;;;;;;2.45;1.10;;;9.70;1.00;;;;;;5039141;28;20025;-78
2024/01/04 14:11:00;;;;;;;;;;;;;;;;;;;;;
2024/01/04 14:14:19;;;;;;;6.32;1.50;;;10.70;1.00;;;;;;5021770;28;20045;-81
2024/01/04 14:17:53;;;;;;;;;;;;;;;;;;;;;
2024/01/04 14:21:16;;;;;;;6.57;1.80;;;9.40;1.00;;;;;;5033589;28;20069;-83
2024/01/04 14:24:45;;;;;;;5.38;1.33;;;9.20;1.00;;;;;;5022821;28;20148;-78
2024/01/04 14:27:55;;;;;;;6.85;1.23;;;9.00;1.00;;;;;;5017096;28;20081;-83
2024/01/04 14:30:59;;;;;;;4.95;1.60;;;9.00;1.00;;;;;;5012181;28;20431;-81
2024/01/04 14:34:02;;;;;;;6.10;1.80;;;8.40;1.00;;;;;;5027124;28;20697;-80
2024/01/04 14:36:59;;;;;;;5.55;1.55;;;7.80;98.10;;;;;;5031633;28;20053;-77
2024/01/04 14:39:59;;;;;;;8.85;2.25;;;7.50;99.90;;;;;;5036847;28;20433;-80
2024/01/04 14:42:54;;;;;;;3.38;1.48;;;7.40;99.90;;;;;;5037067;28;20151;-79
2024/01/04 14:45:50;;;;;;;5.30;1.67;;;7.30;1.00;;;;;;5037866;28;20041;-79
2024/01/04 14:48:45;;;;;;;;;;;7.80;99.90;;;;;;5027745;28;20050;-82
2024/01/04 14:51:38;;;;;;;9.30;2.30;;;8.10;99.90;;;;;;5015360;28;19921;-80
2024/01/04 14:54:30;;;;;;;8.05;1.58;;;7.90;99.90;;;;;;5035154;28;20056;-77
2024/01/04 14:57:23;;;;;;;6.35;1.80;;;7.60;99.90;;;;;;5024642;28;20088;-80
2024/01/04 15:00:20;;;;;;;6.88;2.13;;;7.40;99.90;;;;;;5049589;28;20057;-79
2024/01/04 15:03:07;;;;;;;6.85;2.05;;;7.20;1.00;;;;;;5020085;28;20052;-79
2024/01/04 15:06:04;;;;;;;8.43;2.30;;;7.10;1.00;;;;;;5033341;28;20038;-81
2024/01/04 15:08:58;;;;;;;6.50;1.70;;;7.00;1.00;;;;;;5034741;28;20053;-81
2024/01/04 15:11:47;;;;;;;6.75;2.17;;;6.90;1.00;;;;;;5018352;28;20053;-81
2024/01/04 15:14:39;;;;;;;7.70;1.63;;;6.90;1.00;;;;;;5050112;28;20061;-81
2024/01/04 15:17:31;;;;;;;5.35;1.83;;;6.90;1.00;;;;;;5028395;28;20049;-82
2024/01/04 15:20:27;;;;;;;8.82;1.90;;;6.80;42.40;;;;;;5027754;28;20059;-81
2024/01/04 15:23:15;;;;;;;7.20;2.13;;;6.70;1.00;;;;;;5028808;28;20045;-81
2024/01/04 15:26:07;;;;;;;7.45;2.20;;;6.70;1.00;;;;;;5033015;28;20049;-82
2024/01/04 15:29:00;;;;;;;5.25;1.92;;;6.60;99.90;;;;;;5028542;28;20054;-80
2024/01/04 15:32:02;;;;;;;9.27;2.47;;;6.50;99.90;;;;;;5025188;28;20144;-79
2024/01/04 15:34:52;;;;;;;5.25;2.65;;;6.50;99.90;;;;;;5028276;28;20093;-78
2024/01/04 15:37:40;;;;;;;5.57;2.35;;;6.40;1.00;;;;;;5036232;28;20040;-79
2024/01/04 15:40:27;;;;;;;11.60;2.88;;;6.30;26.20;;;;;;5039482;28;20041;-80
2024/01/04 15:43:18;;;;;;;9.15;2.67;;;6.30;99.90;;;;;;5028918;28;20069;-78
2024/01/04 15:46:09;;;;;;;8.05;2.75;;;6.20;1.00;;;;;;5033381;28;20045;-79
2024/01/04 15:48:59;;;;;;;10.18;3.33;;;6.20;99.90;;;;;;5035649;28;20041;-76
2024/01/04 15:51:46;;;;;;;8.93;3.35;;;6.10;99.90;;;;;;5037802;28;20034;-79
2024/01/04 15:54:38;;;;;;;8.57;3.35;;;6.10;99.90;;;;;;5008072;28;20134;-78
2024/01/04 15:57:27;;;;;;;10.32;2.78;;;6.10;99.90;;;;;;5030178;28;20043;-81
2024/01/04 16:00:16;;;;;;;9.02;3.22;;;6.00;99.90;;;;;;5040376;28;20418;-80
2024/01/04 16:03:07;;;;;;;12.38;3.55;;;6.10;99.90;;;;;;5037227;28;20049;-79
2024/01/04 16:05:57;;;;;;;7.63;2.67;;;6.00;99.90;;;;;;5031285;28;20053;-80
2024/01/04 16:08:51;;;;;;;14.00;3.78;;;6.00;99.90;;;;;;5029964;28;20072;-81